sensor_id;sensor_type;location;lat;lon;timestamp;P1;durP1;ratioP1;P2;durP2;ratioP2
14748;SDS011;7466;53.574;9.976;2022-07-29T00:01:45;3.90;;;2.00;;
14748;SDS011;7466;53.574;9.976;2022-07-29T00:04:12;3.80;;;2.00;;
14748;SDS011;7466;53.574;9.976;2022-07-29T00:06:39;4.63;;;1.90;;
14748;SDS011;7466;53.574;9.976;2022-07-29T00:09:07;2.13;;;1.70;;
14748;SDS011;7466;53.574;9.976;2022-07-29T00:11:34;4.43;;;1.90;;
14748;SDS011;7466;53.574;9.976;2022-07-29T00:14:01;4.53;;;1.93;;
14748;SDS011;7466;53.574;9.976;2022-07-29T00:16:28;3.20;;;2.07;;
14748;SDS011;7466;53.574;9.976;2022-07-29T00:18:54;2.90;;;1.93;;
14748;SDS011;7466;53.574;9.976;2022-07-29T00:21:21;3.33;;;2.00;;
14748;SDS011;7466;53.574;9.976;2022-07-29T00:23:48;2.53;;;1.93;;
14748;SDS011;7466;53.574;9.976;2022-07-29T00:26:16;6.47;;;1.70;;
14748;SDS011;7466;53.574;9.976;2022-07-29T00:28:43;3.60;;;2.03;;
14748;SDS011;7466;53.574;9.976;2022-07-29T00:31:10;3.17;;;1.90;;
14748;SDS011;7466;53.574;9.976;2022-07-29T00:33:36;3.47;;;1.90;;
14748;SDS011;7466;53.574;9.976;2022-07-29T00:36:03;4.07;;;2.30;;
14748;SDS011;7466;53.574;9.976;2022-07-29T00:38:30;5.90;;;1.90;;
14748;SDS011;7466;53.574;9.976;2022-07-29T00:40:56;3.40;;;2.03;;
14748;SDS011;7466;53.574;9.976;2022-07-29T00:43:25;4.50;;;2.17;;
14748;SDS011;7466;53.574;9.976;2022-07-29T00:45:52;4.97;;;2.00;;
14748;SDS011;7466;53.574;9.976;2022-07-29T00:48:19;4.43;;;2.10;;
14748;SDS011;7466;53.574;9.976;2022-07-29T00:50:45;3.17;;;1.83;;
14748;SDS011;7466;53.574;9.976;2022-07-29T00:53:12;4.23;;;2.13;;
14748;SDS011;7466;53.574;9.976;2022-07-29T00:55:39;4.27;;;2.10;;
14748;SDS011;7466;53.574;9.976;2022-07-29T00:58:06;3.33;;;1.93;;
14748;SDS011;7466;53.574;9.976;2022-07-29T01:00:34;6.07;;;2.10;;
14748;SDS011;7466;53.574;9.976;2022-07-29T01:03:01;2.87;;;2.03;;
14748;SDS011;7466;53.574;9.976;2022-07-29T01:05:28;4.17;;;1.90;;
14748;SDS011;7466;53.574;9.976;2022-07-29T01:07:56;5.27;;;2.40;;
14748;SDS011;7466;53.574;9.976;2022-07-29T01:10:24;5.13;;;2.33;;
14748;SDS011;7466;53.574;9.976;2022-07-29T01:12:52;2.77;;;2.20;;
14748;SDS011;7466;53.574;9.976;2022-07-29T01:15:21;3.67;;;2.20;;
14748;SDS011;7466;53.574;9.976;2022-07-29T01:17:51;2.50;;;2.10;;
14748;SDS011;7466;53.574;9.976;2022-07-29T01:20:24;3.27;;;2.37;;
14748;SDS011;7466;53.574;9.976;2022-07-29T01:23:01;6.53;;;2.30;;
14748;SDS011;7466;53.574;9.976;2022-07-29T01:25:48;3.17;;;2.10;;
14748;SDS011;7466;53.574;9.976;2022-07-29T01:28:41;5.33;;;2.30;;
14748;SDS011;7466;53.574;9.976;2022-07-29T01:31:18;2.70;;;2.00;;
14748;SDS011;7466;53.574;9.976;2022-07-29T01:33:52;4.67;;;2.20;;
14748;SDS011;7466;53.574;9.976;2022-07-29T01:36:25;2.83;;;2.17;;
14748;SDS011;7466;53.574;9.976;2022-07-29T01:38:58;3.33;;;2.23;;
14748;SDS011;7466;53.574;9.976;2022-07-29T01:41:31;4.17;;;2.20;;
14748;SDS011;7466;53.574;9.976;2022-07-29T01:44:02;3.43;;;2.30;;
14748;SDS011;7466;53.574;9.976;2022-07-29T01:46:39;4.53;;;2.43;;
14748;SDS011;7466;53.574;9.976;2022-07-29T01:49:11;3.07;;;2.33;;
14748;SDS011;7466;53.574;9.976;2022-07-29T01:51:41;2.87;;;2.17;;
14748;SDS011;7466;53.574;9.976;2022-07-29T01:54:13;4.80;;;2.00;;
14748;SDS011;7466;53.574;9.976;2022-07-29T01:56:45;5.37;;;2.37;;
14748;SDS011;7466;53.574;9.976;2022-07-29T01:59:16;3.07;;;2.10;;
14748;SDS011;7466;53.574;9.976;2022-07-29T02:01:45;3.27;;;2.20;;
14748;SDS011;7466;53.574;9.976;2022-07-29T02:04:14;4.60;;;2.57;;
14748;SDS011;7466;53.574;9.976;2022-07-29T02:06:42;4.47;;;2.40;;
14748;SDS011;7466;53.574;9.976;2022-07-29T02:09:12;3.27;;;2.37;;
14748;SDS011;7466;53.574;9.976;2022-07-29T02:11:40;2.97;;;2.50;;
14748;SDS011;7466;53.574;9.976;2022-07-29T02:14:14;3.03;;;2.50;;
14748;SDS011;7466;53.574;9.976;2022-07-29T02:16:44;3.93;;;2.33;;
14748;SDS011;7466;53.574;9.976;2022-07-29T02:19:13;5.43;;;2.50;;
14748;SDS011;7466;53.574;9.976;2022-07-29T02:21:43;5.27;;;2.50;;
14748;SDS011;7466;53.574;9.976;2022-07-29T02:24:11;4.70;;;2.60;;
14748;SDS011;7466;53.574;9.976;2022-07-29T02:26:40;6.63;;;2.63;;
14748;SDS011;7466;53.574;9.976;2022-07-29T02:29:09;3.83;;;2.60;;
14748;SDS011;7466;53.574;9.976;2022-07-29T02:31:39;5.27;;;2.40;;
14748;SDS011;7466;53.574;9.976;2022-07-29T02:34:08;5.00;;;2.50;;
14748;SDS011;7466;53.574;9.976;2022-07-29T02:36:36;4.63;;;2.37;;
14748;SDS011;7466;53.574;9.976;2022-07-29T02:39:03;5.77;;;2.80;;
14748;SDS011;7466;53.574;9.976;2022-07-29T02:41:33;4.80;;;2.90;;
14748;SDS011;7466;53.574;9.976;2022-07-29T02:44:08;4.73;;;2.53;;
14748;SDS011;7466;53.574;9.976;2022-07-29T02:46:36;3.27;;;2.97;;
14748;SDS011;7466;53.574;9.976;2022-07-29T02:49:18;4.50;;;2.47;;
14748;SDS011;7466;53.574;9.976;2022-07-29T02:51:57;4.63;;;2.60;;
14748;SDS011;7466;53.574;9.976;2022-07-29T02:54:29;6.33;;;2.57;;
14748;SDS011;7466;53.574;9.976;2022-07-29T02:57:01;5.23;;;2.70;;
14748;SDS011;7466;53.574;9.976;2022-07-29T02:59:35;4.57;;;3.13;;
14748;SDS011;7466;53.574;9.976;2022-07-29T03:02:05;4.03;;;2.47;;
14748;SDS011;7466;53.574;9.976;2022-07-29T03:04:35;4.03;;;2.80;;
14748;SDS011;7466;53.574;9.976;2022-07-29T03:07:03;3.53;;;2.50;;
14748;SDS011;7466;53.574;9.976;2022-07-29T03:09:31;2.90;;;2.63;;
14748;SDS011;7466;53.574;9.976;2022-07-29T03:11:58;4.63;;;2.60;;
14748;SDS011;7466;53.574;9.976;2022-07-29T03:14:26;3.30;;;2.50;;
14748;SDS011;7466;53.574;9.976;2022-07-29T03:16:53;5.87;;;2.70;;
14748;SDS011;7466;53.574;9.976;2022-07-29T03:19:22;2.83;;;2.37;;
14748;SDS011;7466;53.574;9.976;2022-07-29T03:21:49;3.60;;;2.40;;
14748;SDS011;7466;53.574;9.976;2022-07-29T03:24:31;7.23;;;2.87;;
14748;SDS011;7466;53.574;9.976;2022-07-29T03:26:58;7.47;;;2.53;;
14748;SDS011;7466;53.574;9.976;2022-07-29T03:29:26;5.93;;;2.60;;
14748;SDS011;7466;53.574;9.976;2022-07-29T03:31:53;3.33;;;2.67;;
14748;SDS011;7466;53.574;9.976;2022-07-29T03:34:20;4.83;;;2.70;;
14748;SDS011;7466;53.574;9.976;2022-07-29T03:36:48;6.37;;;2.90;;
14748;SDS011;7466;53.574;9.976;2022-07-29T03:39:17;4.43;;;2.70;;
14748;SDS011;7466;53.574;9.976;2022-07-29T03:41:48;6.37;;;2.80;;
14748;SDS011;7466;53.574;9.976;2022-07-29T03:44:18;4.07;;;2.87;;
14748;SDS011;7466;53.574;9.976;2022-07-29T03:46:47;3.43;;;2.63;;
14748;SDS011;7466;53.574;9.976;2022-07-29T03:49:16;4.20;;;2.73;;
14748;SDS011;7466;53.574;9.976;2022-07-29T03:51:44;3.67;;;2.70;;
14748;SDS011;7466;53.574;9.976;2022-07-29T03:54:13;6.40;;;3.00;;
14748;SDS011;7466;53.574;9.976;2022-07-29T03:56:41;6.50;;;2.87;;
14748;SDS011;7466;53.574;9.976;2022-07-29T03:59:11;4.60;;;2.80;;
14748;SDS011;7466;53.574;9.976;2022-07-29T04:01:39;3.90;;;2.30;;
14748;SDS011;7466;53.574;9.976;2022-07-29T04:04:08;6.63;;;3.10;;
14748;SDS011;7466;53.574;9.976;2022-07-29T04:06:39;5.37;;;2.70;;
14748;SDS011;7466;53.574;9.976;2022-07-29T04:09:06;6.40;;;2.67;;
14748;SDS011;7466;53.574;9.976;2022-07-29T04:11:35;6.33;;;2.97;;
14748;SDS011;7466;53.574;9.976;2022-07-29T04:14:03;3.93;;;2.77;;
14748;SDS011;7466;53.574;9.976;2022-07-29T04:16:30;4.00;;;3.07;;
14748;SDS011;7466;53.574;9.976;2022-07-29T04:18:57;5.37;;;2.90;;
14748;SDS011;7466;53.574;9.976;2022-07-29T04:21:24;3.00;;;2.80;;
14748;SDS011;7466;53.574;9.976;2022-07-29T04:23:50;7.27;;;2.70;;
14748;SDS011;7466;53.574;9.976;2022-07-29T04:26:17;8.33;;;3.23;;
14748;SDS011;7466;53.574;9.976;2022-07-29T04:28:46;7.23;;;3.33;;
14748;SDS011;7466;53.574;9.976;2022-07-29T04:31:13;4.23;;;2.90;;
14748;SDS011;7466;53.574;9.976;2022-07-29T04:33:40;5.50;;;3.20;;
14748;SDS011;7466;53.574;9.976;2022-07-29T04:36:07;4.63;;;3.10;;
14748;SDS011;7466;53.574;9.976;2022-07-29T04:38:35;5.67;;;2.87;;
14748;SDS011;7466;53.574;9.976;2022-07-29T04:41:02;3.93;;;2.70;;
14748;SDS011;7466;53.574;9.976;2022-07-29T04:43:29;3.80;;;2.60;;
14748;SDS011;7466;53.574;9.976;2022-07-29T04:45:57;4.93;;;3.00;;
14748;SDS011;7466;53.574;9.976;2022-07-29T04:48:24;4.37;;;3.00;;
14748;SDS011;7466;53.574;9.976;2022-07-29T04:50:51;3.10;;;2.40;;
14748;SDS011;7466;53.574;9.976;2022-07-29T04:53:19;5.73;;;2.60;;
14748;SDS011;7466;53.574;9.976;2022-07-29T04:55:45;6.17;;;2.80;;
14748;SDS011;7466;53.574;9.976;2022-07-29T04:58:12;4.80;;;2.70;;
14748;SDS011;7466;53.574;9.976;2022-07-29T05:00:39;4.63;;;2.67;;
14748;SDS011;7466;53.574;9.976;2022-07-29T05:03:07;5.07;;;2.70;;
14748;SDS011;7466;53.574;9.976;2022-07-29T05:05:34;4.47;;;2.80;;
14748;SDS011;7466;53.574;9.976;2022-07-29T05:08:01;3.00;;;2.60;;
14748;SDS011;7466;53.574;9.976;2022-07-29T05:10:28;5.00;;;3.00;;
14748;SDS011;7466;53.574;9.976;2022-07-29T05:12:55;6.13;;;2.77;;
14748;SDS011;7466;53.574;9.976;2022-07-29T05:15:22;4.47;;;3.40;;
14748;SDS011;7466;53.574;9.976;2022-07-29T05:17:49;5.17;;;3.03;;
14748;SDS011;7466;53.574;9.976;2022-07-29T05:20:17;4.93;;;2.67;;
14748;SDS011;7466;53.574;9.976;2022-07-29T05:22:44;5.67;;;2.93;;
14748;SDS011;7466;53.574;9.976;2022-07-29T05:25:10;5.30;;;2.70;;
14748;SDS011;7466;53.574;9.976;2022-07-29T05:27:37;3.73;;;2.90;;
14748;SDS011;7466;53.574;9.976;2022-07-29T05:30:04;5.60;;;2.60;;
14748;SDS011;7466;53.574;9.976;2022-07-29T05:32:32;4.63;;;2.63;;
14748;SDS011;7466;53.574;9.976;2022-07-29T05:34:59;4.57;;;3.23;;
14748;SDS011;7466;53.574;9.976;2022-07-29T05:37:27;3.90;;;2.50;;
14748;SDS011;7466;53.574;9.976;2022-07-29T05:39:53;8.60;;;3.17;;
14748;SDS011;7466;53.574;9.976;2022-07-29T05:42:20;4.70;;;2.53;;
14748;SDS011;7466;53.574;9.976;2022-07-29T05:44:47;6.93;;;2.93;;
14748;SDS011;7466;53.574;9.976;2022-07-29T05:47:14;5.77;;;2.77;;
14748;SDS011;7466;53.574;9.976;2022-07-29T05:49:41;5.10;;;2.60;;
14748;SDS011;7466;53.574;9.976;2022-07-29T05:52:07;7.03;;;3.30;;
14748;SDS011;7466;53.574;9.976;2022-07-29T05:54:36;8.80;;;3.30;;
14748;SDS011;7466;53.574;9.976;2022-07-29T05:57:03;3.57;;;2.80;;
14748;SDS011;7466;53.574;9.976;2022-07-29T05:59:30;7.87;;;2.90;;
14748;SDS011;7466;53.574;9.976;2022-07-29T06:01:57;7.30;;;2.83;;
14748;SDS011;7466;53.574;9.976;2022-07-29T06:04:24;4.80;;;2.47;;
14748;SDS011;7466;53.574;9.976;2022-07-29T06:06:50;5.00;;;2.77;;
14748;SDS011;7466;53.574;9.976;2022-07-29T06:09:17;3.80;;;2.53;;
14748;SDS011;7466;53.574;9.976;2022-07-29T06:11:46;4.20;;;2.77;;
14748;SDS011;7466;53.574;9.976;2022-07-29T06:14:13;5.60;;;2.77;;
14748;SDS011;7466;53.574;9.976;2022-07-29T06:16:39;6.70;;;2.90;;
14748;SDS011;7466;53.574;9.976;2022-07-29T06:19:07;5.67;;;2.97;;
14748;SDS011;7466;53.574;9.976;2022-07-29T06:21:34;6.47;;;2.77;;
14748;SDS011;7466;53.574;9.976;2022-07-29T06:24:01;6.30;;;2.50;;
14748;SDS011;7466;53.574;9.976;2022-07-29T06:26:28;7.37;;;2.60;;
14748;SDS011;7466;53.574;9.976;2022-07-29T06:28:56;3.30;;;2.47;;
14748;SDS011;7466;53.574;9.976;2022-07-29T06:31:23;4.67;;;2.50;;
14748;SDS011;7466;53.574;9.976;2022-07-29T06:33:50;4.67;;;2.50;;
14748;SDS011;7466;53.574;9.976;2022-07-29T06:36:17;3.37;;;2.30;;
14748;SDS011;7466;53.574;9.976;2022-07-29T06:38:44;4.50;;;2.50;;
14748;SDS011;7466;53.574;9.976;2022-07-29T06:41:11;4.17;;;2.57;;
14748;SDS011;7466;53.574;9.976;2022-07-29T06:43:41;4.40;;;2.60;;
14748;SDS011;7466;53.574;9.976;2022-07-29T06:46:10;7.33;;;2.40;;
14748;SDS011;7466;53.574;9.976;2022-07-29T06:48:38;4.53;;;2.60;;
14748;SDS011;7466;53.574;9.976;2022-07-29T06:51:07;3.20;;;2.63;;
14748;SDS011;7466;53.574;9.976;2022-07-29T06:53:35;3.93;;;2.60;;
14748;SDS011;7466;53.574;9.976;2022-07-29T06:56:02;3.63;;;2.90;;
14748;SDS011;7466;53.574;9.976;2022-07-29T06:58:30;4.03;;;2.70;;
14748;SDS011;7466;53.574;9.976;2022-07-29T07:00:57;4.37;;;2.43;;
14748;SDS011;7466;53.574;9.976;2022-07-29T07:03:28;2.77;;;2.53;;
14748;SDS011;7466;53.574;9.976;2022-07-29T07:05:55;7.17;;;2.93;;
14748;SDS011;7466;53.574;9.976;2022-07-29T07:08:22;6.90;;;3.10;;
14748;SDS011;7466;53.574;9.976;2022-07-29T07:10:49;4.53;;;2.63;;
14748;SDS011;7466;53.574;9.976;2022-07-29T07:13:16;2.87;;;2.40;;
14748;SDS011;7466;53.574;9.976;2022-07-29T07:15:43;4.60;;;2.60;;
14748;SDS011;7466;53.574;9.976;2022-07-29T07:18:12;2.73;;;2.40;;
14748;SDS011;7466;53.574;9.976;2022-07-29T07:20:41;4.13;;;2.70;;
14748;SDS011;7466;53.574;9.976;2022-07-29T07:23:09;6.53;;;2.80;;
14748;SDS011;7466;53.574;9.976;2022-07-29T07:25:36;4.27;;;2.40;;
14748;SDS011;7466;53.574;9.976;2022-07-29T07:28:03;3.83;;;2.60;;
14748;SDS011;7466;53.574;9.976;2022-07-29T07:30:30;6.73;;;2.87;;
14748;SDS011;7466;53.574;9.976;2022-07-29T07:32:57;4.90;;;2.77;;
14748;SDS011;7466;53.574;9.976;2022-07-29T07:35:23;3.43;;;2.37;;
14748;SDS011;7466;53.574;9.976;2022-07-29T07:37:54;4.77;;;2.57;;
14748;SDS011;7466;53.574;9.976;2022-07-29T07:40:20;5.13;;;2.70;;
14748;SDS011;7466;53.574;9.976;2022-07-29T07:42:47;3.23;;;2.50;;
14748;SDS011;7466;53.574;9.976;2022-07-29T07:45:14;4.03;;;2.80;;
14748;SDS011;7466;53.574;9.976;2022-07-29T07:47:41;4.63;;;2.57;;
14748;SDS011;7466;53.574;9.976;2022-07-29T07:50:08;3.80;;;2.90;;
14748;SDS011;7466;53.574;9.976;2022-07-29T07:52:45;4.40;;;2.67;;
14748;SDS011;7466;53.574;9.976;2022-07-29T07:55:14;6.07;;;2.67;;
14748;SDS011;7466;53.574;9.976;2022-07-29T07:57:41;3.47;;;2.70;;
14748;SDS011;7466;53.574;9.976;2022-07-29T08:00:09;4.40;;;2.70;;
14748;SDS011;7466;53.574;9.976;2022-07-29T08:02:36;4.30;;;2.40;;
14748;SDS011;7466;53.574;9.976;2022-07-29T08:05:04;2.93;;;2.60;;
14748;SDS011;7466;53.574;9.976;2022-07-29T08:07:31;7.53;;;2.10;;
14748;SDS011;7466;53.574;9.976;2022-07-29T08:09:58;4.97;;;2.70;;
14748;SDS011;7466;53.574;9.976;2022-07-29T08:12:27;6.83;;;2.60;;
14748;SDS011;7466;53.574;9.976;2022-07-29T08:14:53;5.10;;;2.40;;
14748;SDS011;7466;53.574;9.976;2022-07-29T08:17:20;6.67;;;2.20;;
14748;SDS011;7466;53.574;9.976;2022-07-29T08:19:47;3.30;;;2.53;;
14748;SDS011;7466;53.574;9.976;2022-07-29T08:22:14;6.03;;;2.47;;
14748;SDS011;7466;53.574;9.976;2022-07-29T08:24:41;5.13;;;2.70;;
14748;SDS011;7466;53.574;9.976;2022-07-29T08:27:17;4.93;;;2.60;;
14748;SDS011;7466;53.574;9.976;2022-07-29T08:29:46;3.87;;;2.83;;
14748;SDS011;7466;53.574;9.976;2022-07-29T08:32:13;5.10;;;2.70;;
14748;SDS011;7466;53.574;9.976;2022-07-29T08:34:39;5.27;;;2.63;;
14748;SDS011;7466;53.574;9.976;2022-07-29T08:37:07;6.93;;;2.67;;
14748;SDS011;7466;53.574;9.976;2022-07-29T08:39:34;4.40;;;2.60;;
14748;SDS011;7466;53.574;9.976;2022-07-29T08:42:00;3.90;;;2.40;;
14748;SDS011;7466;53.574;9.976;2022-07-29T08:44:27;2.97;;;2.33;;
14748;SDS011;7466;53.574;9.976;2022-07-29T08:46:56;3.57;;;2.50;;
14748;SDS011;7466;53.574;9.976;2022-07-29T08:49:23;4.47;;;2.63;;
14748;SDS011;7466;53.574;9.976;2022-07-29T08:51:50;4.57;;;2.60;;
14748;SDS011;7466;53.574;9.976;2022-07-29T08:54:19;5.83;;;2.23;;
14748;SDS011;7466;53.574;9.976;2022-07-29T08:56:49;4.87;;;2.70;;
14748;SDS011;7466;53.574;9.976;2022-07-29T08:59:17;4.43;;;2.63;;
14748;SDS011;7466;53.574;9.976;2022-07-29T09:01:46;5.37;;;2.27;;
14748;SDS011;7466;53.574;9.976;2022-07-29T09:04:16;7.80;;;2.47;;
14748;SDS011;7466;53.574;9.976;2022-07-29T09:06:44;6.90;;;2.55;;
14748;SDS011;7466;53.574;9.976;2022-07-29T09:09:13;4.07;;;2.58;;
14748;SDS011;7466;53.574;9.976;2022-07-29T09:11:40;3.83;;;2.20;;
14748;SDS011;7466;53.574;9.976;2022-07-29T09:14:08;4.72;;;2.28;;
14748;SDS011;7466;53.574;9.976;2022-07-29T09:16:43;3.35;;;2.10;;
14748;SDS011;7466;53.574;9.976;2022-07-29T09:19:20;4.07;;;2.28;;
14748;SDS011;7466;53.574;9.976;2022-07-29T09:21:48;4.35;;;2.13;;
14748;SDS011;7466;53.574;9.976;2022-07-29T09:24:24;3.40;;;2.25;;
14748;SDS011;7466;53.574;9.976;2022-07-29T09:27:08;4.32;;;2.15;;
14748;SDS011;7466;53.574;9.976;2022-07-29T09:29:37;5.47;;;2.05;;
14748;SDS011;7466;53.574;9.976;2022-07-29T09:32:06;4.25;;;2.45;;
14748;SDS011;7466;53.574;9.976;2022-07-29T09:34:37;6.38;;;2.28;;
14748;SDS011;7466;53.574;9.976;2022-07-29T09:37:04;2.78;;;2.20;;
14748;SDS011;7466;53.574;9.976;2022-07-29T09:39:32;5.85;;;2.15;;
14748;SDS011;7466;53.574;9.976;2022-07-29T09:42:01;3.35;;;2.17;;
14748;SDS011;7466;53.574;9.976;2022-07-29T09:44:43;5.25;;;2.40;;
14748;SDS011;7466;53.574;9.976;2022-07-29T09:47:10;4.45;;;2.20;;
14748;SDS011;7466;53.574;9.976;2022-07-29T09:49:51;3.50;;;2.20;;
14748;SDS011;7466;53.574;9.976;2022-07-29T09:52:19;3.38;;;2.22;;
14748;SDS011;7466;53.574;9.976;2022-07-29T09:54:47;5.30;;;2.30;;
14748;SDS011;7466;53.574;9.976;2022-07-29T09:57:25;3.78;;;2.03;;
14748;SDS011;7466;53.574;9.976;2022-07-29T09:59:56;4.18;;;2.25;;
14748;SDS011;7466;53.574;9.976;2022-07-29T10:02:28;6.57;;;2.00;;
14748;SDS011;7466;53.574;9.976;2022-07-29T10:04:57;6.93;;;2.15;;
14748;SDS011;7466;53.574;9.976;2022-07-29T10:07:24;4.18;;;2.08;;
14748;SDS011;7466;53.574;9.976;2022-07-29T10:09:55;6.00;;;2.28;;
14748;SDS011;7466;53.574;9.976;2022-07-29T10:12:23;3.13;;;1.90;;
14748;SDS011;7466;53.574;9.976;2022-07-29T10:14:50;4.22;;;2.15;;
14748;SDS011;7466;53.574;9.976;2022-07-29T10:17:17;3.55;;;2.13;;
14748;SDS011;7466;53.574;9.976;2022-07-29T10:19:44;3.65;;;1.77;;
14748;SDS011;7466;53.574;9.976;2022-07-29T10:22:13;3.70;;;2.40;;
14748;SDS011;7466;53.574;9.976;2022-07-29T10:24:40;3.20;;;2.20;;
14748;SDS011;7466;53.574;9.976;2022-07-29T10:27:07;4.28;;;2.05;;
14748;SDS011;7466;53.574;9.976;2022-07-29T10:29:34;3.08;;;1.98;;
14748;SDS011;7466;53.574;9.976;2022-07-29T10:34:56;5.43;;;2.20;;
14748;SDS011;7466;53.574;9.976;2022-07-29T10:37:37;6.50;;;1.98;;
14748;SDS011;7466;53.574;9.976;2022-07-29T10:40:26;3.58;;;1.88;;
14748;SDS011;7466;53.574;9.976;2022-07-29T10:43:18;4.40;;;1.83;;
14748;SDS011;7466;53.574;9.976;2022-07-29T10:45:48;4.15;;;1.77;;
14748;SDS011;7466;53.574;9.976;2022-07-29T10:48:20;4.30;;;2.35;;
14748;SDS011;7466;53.574;9.976;2022-07-29T10:50:54;4.68;;;2.05;;
14748;SDS011;7466;53.574;9.976;2022-07-29T10:53:23;5.72;;;1.85;;
14748;SDS011;7466;53.574;9.976;2022-07-29T10:55:51;3.72;;;2.13;;
14748;SDS011;7466;53.574;9.976;2022-07-29T10:58:18;3.70;;;2.10;;
14748;SDS011;7466;53.574;9.976;2022-07-29T11:00:47;2.42;;;1.77;;
14748;SDS011;7466;53.574;9.976;2022-07-29T11:06:11;6.72;;;1.90;;
14748;SDS011;7466;53.574;9.976;2022-07-29T11:08:41;5.30;;;1.98;;
14748;SDS011;7466;53.574;9.976;2022-07-29T11:13:59;5.70;;;2.40;;
14748;SDS011;7466;53.574;9.976;2022-07-29T11:16:26;3.67;;;1.98;;
14748;SDS011;7466;53.574;9.976;2022-07-29T11:19:27;5.80;;;2.20;;
14748;SDS011;7466;53.574;9.976;2022-07-29T11:21:54;4.22;;;1.85;;
14748;SDS011;7466;53.574;9.976;2022-07-29T11:24:23;5.75;;;1.90;;
14748;SDS011;7466;53.574;9.976;2022-07-29T11:27:12;2.88;;;1.90;;
14748;SDS011;7466;53.574;9.976;2022-07-29T11:29:48;2.13;;;1.70;;
14748;SDS011;7466;53.574;9.976;2022-07-29T11:32:17;3.53;;;1.83;;
14748;SDS011;7466;53.574;9.976;2022-07-29T11:34:45;2.88;;;1.60;;
14748;SDS011;7466;53.574;9.976;2022-07-29T11:37:17;1.88;;;1.70;;
14748;SDS011;7466;53.574;9.976;2022-07-29T11:40:07;2.50;;;1.60;;
14748;SDS011;7466;53.574;9.976;2022-07-29T11:45:24;2.25;;;1.75;;
14748;SDS011;7466;53.574;9.976;2022-07-29T11:47:57;5.07;;;1.92;;
14748;SDS011;7466;53.574;9.976;2022-07-29T11:50:30;4.10;;;1.80;;
14748;SDS011;7466;53.574;9.976;2022-07-29T11:52:59;4.65;;;1.90;;
14748;SDS011;7466;53.574;9.976;2022-07-29T11:55:28;4.82;;;2.00;;
14748;SDS011;7466;53.574;9.976;2022-07-29T11:57:57;5.00;;;2.00;;
14748;SDS011;7466;53.574;9.976;2022-07-29T12:00:27;3.58;;;1.75;;
14748;SDS011;7466;53.574;9.976;2022-07-29T12:02:56;2.35;;;1.83;;
14748;SDS011;7466;53.574;9.976;2022-07-29T12:05:30;3.00;;;1.88;;
14748;SDS011;7466;53.574;9.976;2022-07-29T12:08:09;3.08;;;1.52;;
14748;SDS011;7466;53.574;9.976;2022-07-29T12:10:40;3.83;;;1.92;;
14748;SDS011;7466;53.574;9.976;2022-07-29T12:13:07;4.97;;;1.67;;
14748;SDS011;7466;53.574;9.976;2022-07-29T12:15:34;3.03;;;1.58;;
14748;SDS011;7466;53.574;9.976;2022-07-29T12:18:11;13.32;;;1.70;;
14748;SDS011;7466;53.574;9.976;2022-07-29T12:20:40;2.67;;;1.70;;
14748;SDS011;7466;53.574;9.976;2022-07-29T12:23:07;2.75;;;1.80;;
14748;SDS011;7466;53.574;9.976;2022-07-29T12:25:37;3.95;;;1.73;;
14748;SDS011;7466;53.574;9.976;2022-07-29T12:28:06;5.05;;;1.70;;
14748;SDS011;7466;53.574;9.976;2022-07-29T12:30:36;3.20;;;1.77;;
14748;SDS011;7466;53.574;9.976;2022-07-29T12:33:12;2.42;;;1.70;;
14748;SDS011;7466;53.574;9.976;2022-07-29T12:35:41;5.80;;;1.98;;
14748;SDS011;7466;53.574;9.976;2022-07-29T12:38:10;3.65;;;1.70;;
14748;SDS011;7466;53.574;9.976;2022-07-29T12:40:38;3.38;;;1.70;;
14748;SDS011;7466;53.574;9.976;2022-07-29T12:43:10;3.92;;;1.92;;
14748;SDS011;7466;53.574;9.976;2022-07-29T12:45:39;4.30;;;1.98;;
14748;SDS011;7466;53.574;9.976;2022-07-29T12:48:07;4.10;;;1.90;;
14748;SDS011;7466;53.574;9.976;2022-07-29T12:50:35;3.30;;;1.50;;
14748;SDS011;7466;53.574;9.976;2022-07-29T12:53:09;2.42;;;1.77;;
14748;SDS011;7466;53.574;9.976;2022-07-29T12:55:38;4.50;;;1.80;;
14748;SDS011;7466;53.574;9.976;2022-07-29T12:58:05;1.90;;;1.80;;
14748;SDS011;7466;53.574;9.976;2022-07-29T13:00:34;5.85;;;2.03;;
14748;SDS011;7466;53.574;9.976;2022-07-29T13:03:01;4.93;;;1.63;;
14748;SDS011;7466;53.574;9.976;2022-07-29T13:08:11;4.32;;;1.80;;
14748;SDS011;7466;53.574;9.976;2022-07-29T13:10:40;2.67;;;1.80;;
14748;SDS011;7466;53.574;9.976;2022-07-29T13:13:07;4.03;;;1.90;;
14748;SDS011;7466;53.574;9.976;2022-07-29T13:15:36;3.85;;;1.50;;
14748;SDS011;7466;53.574;9.976;2022-07-29T13:18:04;3.03;;;1.75;;
14748;SDS011;7466;53.574;9.976;2022-07-29T13:20:51;6.85;;;1.90;;
14748;SDS011;7466;53.574;9.976;2022-07-29T13:23:18;4.07;;;1.50;;
14748;SDS011;7466;53.574;9.976;2022-07-29T13:25:45;5.05;;;1.70;;
14748;SDS011;7466;53.574;9.976;2022-07-29T13:28:12;3.50;;;1.70;;
14748;SDS011;7466;53.574;9.976;2022-07-29T13:30:40;2.65;;;1.73;;
14748;SDS011;7466;53.574;9.976;2022-07-29T13:33:07;3.00;;;1.77;;
14748;SDS011;7466;53.574;9.976;2022-07-29T13:35:34;3.95;;;1.98;;
14748;SDS011;7466;53.574;9.976;2022-07-29T13:38:00;4.25;;;1.85;;
14748;SDS011;7466;53.574;9.976;2022-07-29T13:40:27;4.72;;;2.00;;
14748;SDS011;7466;53.574;9.976;2022-07-29T13:42:55;6.05;;;2.40;;
14748;SDS011;7466;53.574;9.976;2022-07-29T13:45:22;3.13;;;2.17;;
14748;SDS011;7466;53.574;9.976;2022-07-29T13:47:50;7.82;;;2.20;;
14748;SDS011;7466;53.574;9.976;2022-07-29T13:50:17;7.03;;;1.95;;
14748;SDS011;7466;53.574;9.976;2022-07-29T13:52:44;4.32;;;2.10;;
14748;SDS011;7466;53.574;9.976;2022-07-29T13:55:13;3.83;;;1.92;;
14748;SDS011;7466;53.574;9.976;2022-07-29T13:57:39;2.97;;;1.95;;
14748;SDS011;7466;53.574;9.976;2022-07-29T14:00:07;5.80;;;2.10;;
14748;SDS011;7466;53.574;9.976;2022-07-29T14:02:35;2.55;;;2.05;;
14748;SDS011;7466;53.574;9.976;2022-07-29T14:05:05;6.70;;;2.33;;
14748;SDS011;7466;53.574;9.976;2022-07-29T14:07:32;4.07;;;2.30;;
14748;SDS011;7466;53.574;9.976;2022-07-29T14:09:59;4.95;;;2.40;;
14748;SDS011;7466;53.574;9.976;2022-07-29T14:12:26;7.28;;;2.13;;
14748;SDS011;7466;53.574;9.976;2022-07-29T14:14:52;3.83;;;2.20;;
14748;SDS011;7466;53.574;9.976;2022-07-29T14:17:19;5.13;;;2.17;;
14748;SDS011;7466;53.574;9.976;2022-07-29T14:19:46;4.28;;;2.10;;
14748;SDS011;7466;53.574;9.976;2022-07-29T14:22:14;3.00;;;2.10;;
14748;SDS011;7466;53.574;9.976;2022-07-29T14:24:43;4.45;;;2.30;;
14748;SDS011;7466;53.574;9.976;2022-07-29T14:27:10;5.78;;;2.38;;
14748;SDS011;7466;53.574;9.976;2022-07-29T14:29:37;3.22;;;2.10;;
14748;SDS011;7466;53.574;9.976;2022-07-29T14:32:04;3.53;;;2.10;;
14748;SDS011;7466;53.574;9.976;2022-07-29T14:34:32;4.60;;;2.10;;
14748;SDS011;7466;53.574;9.976;2022-07-29T14:36:59;3.75;;;2.30;;
14748;SDS011;7466;53.574;9.976;2022-07-29T14:39:27;4.80;;;2.42;;
14748;SDS011;7466;53.574;9.976;2022-07-29T14:41:54;3.67;;;2.28;;
14748;SDS011;7466;53.574;9.976;2022-07-29T14:44:21;5.35;;;2.17;;
14748;SDS011;7466;53.574;9.976;2022-07-29T14:46:48;3.83;;;1.92;;
14748;SDS011;7466;53.574;9.976;2022-07-29T14:49:15;6.22;;;2.13;;
14748;SDS011;7466;53.574;9.976;2022-07-29T14:51:42;6.85;;;1.98;;
14748;SDS011;7466;53.574;9.976;2022-07-29T14:54:09;5.32;;;2.13;;
14748;SDS011;7466;53.574;9.976;2022-07-29T14:56:38;3.60;;;2.05;;
14748;SDS011;7466;53.574;9.976;2022-07-29T14:59:04;4.03;;;2.00;;
14748;SDS011;7466;53.574;9.976;2022-07-29T15:01:31;2.47;;;1.77;;
14748;SDS011;7466;53.574;9.976;2022-07-29T15:03:58;2.30;;;1.80;;
14748;SDS011;7466;53.574;9.976;2022-07-29T15:06:25;2.55;;;2.03;;
14748;SDS011;7466;53.574;9.976;2022-07-29T15:08:51;4.20;;;2.20;;
14748;SDS011;7466;53.574;9.976;2022-07-29T15:11:18;3.13;;;1.92;;
14748;SDS011;7466;53.574;9.976;2022-07-29T15:13:46;3.53;;;2.00;;
14748;SDS011;7466;53.574;9.976;2022-07-29T15:16:13;3.35;;;1.90;;
14748;SDS011;7466;53.574;9.976;2022-07-29T15:18:40;6.40;;;2.05;;
14748;SDS011;7466;53.574;9.976;2022-07-29T15:21:07;3.53;;;1.70;;
14748;SDS011;7466;53.574;9.976;2022-07-29T15:23:34;3.72;;;2.22;;
14748;SDS011;7466;53.574;9.976;2022-07-29T15:26:01;3.55;;;2.10;;